sensor_id;sensor_type;location;lat;lon;timestamp;temperature;humidity
4429;DHT22;2227;47.810;8.810;2023-04-29T04:33:56;14.60;99.90
4429;DHT22;2227;47.810;8.810;2023-04-29T04:36:25;14.50;99.90
4429;DHT22;2227;47.810;8.810;2023-04-29T04:38:52;14.60;99.90
4429;DHT22;2227;47.810;8.810;2023-04-29T04:41:18;14.60;99.90
4429;DHT22;2227;47.810;8.810;2023-04-29T04:43:45;14.60;99.90
4429;DHT22;2227;47.810;8.810;2023-04-29T04:46:12;14.70;99.90
4429;DHT22;2227;47.810;8.810;2023-04-29T04:48:40;14.80;99.90
4429;DHT22;2227;47.810;8.810;2023-04-29T04:51:08;14.70;99.90
4429;DHT22;2227;47.810;8.810;2023-04-29T04:53:35;14.70;99.90
4429;DHT22;2227;47.810;8.810;2023-04-29T04:56:02;14.70;99.90
4429;DHT22;2227;47.810;8.810;2023-04-29T04:58:30;14.70;99.90
4429;DHT22;2227;47.810;8.810;2023-04-29T05:01:00;14.70;99.90
4429;DHT22;2227;47.810;8.810;2023-04-29T05:03:27;14.70;99.90
4429;DHT22;2227;47.810;8.810;2023-04-29T05:05:58;14.80;99.90
4429;DHT22;2227;47.810;8.810;2023-04-29T05:08:25;14.80;99.90
4429;DHT22;2227;47.810;8.810;2023-04-29T05:10:52;14.90;99.90
4429;DHT22;2227;47.810;8.810;2023-04-29T05:13:20;14.80;99.90
4429;DHT22;2227;47.810;8.810;2023-04-29T05:15:46;14.80;99.90
4429;DHT22;2227;47.810;8.810;2023-04-29T05:18:13;14.90;99.90
4429;DHT22;2227;47.810;8.810;2023-04-29T05:20:40;14.90;99.90
4429;DHT22;2227;47.810;8.810;2023-04-29T05:23:06;15.00;99.90
4429;DHT22;2227;47.810;8.810;2023-04-29T05:25:34;15.00;99.90
4429;DHT22;2227;47.810;8.810;2023-04-29T05:28:02;15.00;99.90
4429;DHT22;2227;47.810;8.810;2023-04-29T05:30:29;15.00;99.90
4429;DHT22;2227;47.810;8.810;2023-04-29T05:32:56;15.10;99.90
4429;DHT22;2227;47.810;8.810;2023-04-29T05:35:24;15.20;99.90
4429;DHT22;2227;47.810;8.810;2023-04-29T05:37:50;15.30;99.90
4429;DHT22;2227;47.810;8.810;2023-04-29T05:40:17;15.30;99.90
4429;DHT22;2227;47.810;8.810;2023-04-29T05:42:44;15.40;99.90
4429;DHT22;2227;47.810;8.810;2023-04-29T05:45:11;15.50;99.90
4429;DHT22;2227;47.810;8.810;2023-04-29T05:47:38;15.50;99.90
4429;DHT22;2227;47.810;8.810;2023-04-29T05:50:05;15.50;99.90
4429;DHT22;2227;47.810;8.810;2023-04-29T05:52:32;15.50;99.90
4429;DHT22;2227;47.810;8.810;2023-04-29T05:54:58;15.60;99.90
4429;DHT22;2227;47.810;8.810;2023-04-29T05:57:25;15.60;99.90
4429;DHT22;2227;47.810;8.810;2023-04-29T05:59:52;15.50;99.90
4429;DHT22;2227;47.810;8.810;2023-04-29T06:02:21;15.40;99.90
4429;DHT22;2227;47.810;8.810;2023-04-29T06:04:48;15.40;99.90
4429;DHT22;2227;47.810;8.810;2023-04-29T06:07:15;15.60;99.90
4429;DHT22;2227;47.810;8.810;2023-04-29T06:09:45;15.80;99.90
4429;DHT22;2227;47.810;8.810;2023-04-29T06:12:12;16.00;99.90
4429;DHT22;2227;47.810;8.810;2023-04-29T06:14:39;16.10;99.90
4429;DHT22;2227;47.810;8.810;2023-04-29T06:17:06;16.20;99.90
4429;DHT22;2227;47.810;8.810;2023-04-29T06:19:32;16.30;99.90
4429;DHT22;2227;47.810;8.810;2023-04-29T06:21:59;16.40;99.90
4429;DHT22;2227;47.810;8.810;2023-04-29T06:24:26;16.20;99.90
4429;DHT22;2227;47.810;8.810;2023-04-29T06:26:53;16.30;99.90
4429;DHT22;2227;47.810;8.810;2023-04-29T06:29:19;16.30;99.90
4429;DHT22;2227;47.810;8.810;2023-04-29T06:31:46;16.50;99.90
4429;DHT22;2227;47.810;8.810;2023-04-29T06:34:13;16.60;99.90
4429;DHT22;2227;47.810;8.810;2023-04-29T06:36:39;16.70;99.90
4429;DHT22;2227;47.810;8.810;2023-04-29T06:39:07;16.80;99.90
4429;DHT22;2227;47.810;8.810;2023-04-29T06:41:33;17.00;99.90
4429;DHT22;2227;47.810;8.810;2023-04-29T06:44:00;17.00;99.90
4429;DHT22;2227;47.810;8.810;2023-04-29T06:46:27;17.10;99.90
4429;DHT22;2227;47.810;8.810;2023-04-29T06:48:54;17.20;99.90
4429;DHT22;2227;47.810;8.810;2023-04-29T06:51:21;17.40;99.90
4429;DHT22;2227;47.810;8.810;2023-04-29T06:53:48;17.40;99.90
4429;DHT22;2227;47.810;8.810;2023-04-29T06:56:14;17.40;99.90
4429;DHT22;2227;47.810;8.810;2023-04-29T06:58:42;17.50;99.90
4429;DHT22;2227;47.810;8.810;2023-04-29T07:01:09;17.50;99.90
4429;DHT22;2227;47.810;8.810;2023-04-29T07:03:36;17.30;99.90
4429;DHT22;2227;47.810;8.810;2023-04-29T07:06:03;16.90;99.90
4429;DHT22;2227;47.810;8.810;2023-04-29T07:08:30;16.60;99.90
4429;DHT22;2227;47.810;8.810;2023-04-29T07:10:58;16.50;99.90
4429;DHT22;2227;47.810;8.810;2023-04-29T07:13:25;16.50;99.90
4429;DHT22;2227;47.810;8.810;2023-04-29T07:15:52;16.50;99.90
4429;DHT22;2227;47.810;8.810;2023-04-29T07:18:18;16.60;99.90
4429;DHT22;2227;47.810;8.810;2023-04-29T07:20:45;16.70;99.90
4429;DHT22;2227;47.810;8.810;2023-04-29T07:23:13;16.70;99.90
4429;DHT22;2227;47.810;8.810;2023-04-29T07:25:40;16.90;99.90
4429;DHT22;2227;47.810;8.810;2023-04-29T07:28:07;16.80;99.90
4429;DHT22;2227;47.810;8.810;2023-04-29T07:30:34;16.80;99.90
4429;DHT22;2227;47.810;8.810;2023-04-29T07:33:01;17.10;99.90
4429;DHT22;2227;47.810;8.810;2023-04-29T07:35:29;17.20;99.90
4429;DHT22;2227;47.810;8.810;2023-04-29T07:37:57;17.60;99.90
4429;DHT22;2227;47.810;8.810;2023-04-29T07:40:23;17.90;99.90
4429;DHT22;2227;47.810;8.810;2023-04-29T07:42:50;18.10;99.90
4429;DHT22;2227;47.810;8.810;2023-04-29T07:45:17;18.20;99.90
4429;DHT22;2227;47.810;8.810;2023-04-29T07:47:44;18.10;99.90
4429;DHT22;2227;47.810;8.810;2023-04-29T07:50:11;17.90;99.90
4429;DHT22;2227;47.810;8.810;2023-04-29T07:52:38;17.90;99.90
4429;DHT22;2227;47.810;8.810;2023-04-29T07:55:05;17.90;99.90
4429;DHT22;2227;47.810;8.810;2023-04-29T07:57:31;18.00;99.90
4429;DHT22;2227;47.810;8.810;2023-04-29T07:59:58;18.10;99.90
4429;DHT22;2227;47.810;8.810;2023-04-29T08:02:25;18.10;99.90
4429;DHT22;2227;47.810;8.810;2023-04-29T08:04:52;18.30;99.90
4429;DHT22;2227;47.810;8.810;2023-04-29T08:07:22;18.10;99.90
4429;DHT22;2227;47.810;8.810;2023-04-29T08:09:48;18.10;99.90
4429;DHT22;2227;47.810;8.810;2023-04-29T08:12:15;18.40;99.90
4429;DHT22;2227;47.810;8.810;2023-04-29T08:14:42;18.30;99.90
4429;DHT22;2227;47.810;8.810;2023-04-29T08:17:09;18.40;99.90
4429;DHT22;2227;47.810;8.810;2023-04-29T08:19:35;18.50;99.90
4429;DHT22;2227;47.810;8.810;2023-04-29T08:22:02;18.40;99.90
4429;DHT22;2227;47.810;8.810;2023-04-29T08:24:29;18.50;99.90
4429;DHT22;2227;47.810;8.810;2023-04-29T08:26:56;18.30;99.90
4429;DHT22;2227;47.810;8.810;2023-04-29T08:29:24;18.30;99.90
4429;DHT22;2227;47.810;8.810;2023-04-29T08:31:51;18.60;99.90
4429;DHT22;2227;47.810;8.810;2023-04-29T08:34:18;18.70;99.90
4429;DHT22;2227;47.810;8.810;2023-04-29T08:36:45;19.00;99.90
4429;DHT22;2227;47.810;8.810;2023-04-29T08:39:11;19.30;99.90
4429;DHT22;2227;47.810;8.810;2023-04-29T08:41:38;19.70;99.90
4429;DHT22;2227;47.810;8.810;2023-04-29T08:44:05;20.40;99.90
4429;DHT22;2227;47.810;8.810;2023-04-29T08:46:32;21.10;99.90
4429;DHT22;2227;47.810;8.810;2023-04-29T08:49:02;21.40;99.90
4429;DHT22;2227;47.810;8.810;2023-04-29T08:51:29;21.60;99.90
4429;DHT22;2227;47.810;8.810;2023-04-29T08:53:57;21.70;99.90
4429;DHT22;2227;47.810;8.810;2023-04-29T08:56:24;21.50;99.90
4429;DHT22;2227;47.810;8.810;2023-04-29T08:58:54;22.00;99.90
4429;DHT22;2227;47.810;8.810;2023-04-29T09:01:27;22.70;99.90
4429;DHT22;2227;47.810;8.810;2023-04-29T09:06:39;22.50;99.90
4429;DHT22;2227;47.810;8.810;2023-04-29T09:09:07;22.70;99.90
4429;DHT22;2227;47.810;8.810;2023-04-29T09:11:34;23.00;99.90
4429;DHT22;2227;47.810;8.810;2023-04-29T09:14:02;23.60;99.90
4429;DHT22;2227;47.810;8.810;2023-04-29T09:16:33;24.70;99.90
4429;DHT22;2227;47.810;8.810;2023-04-29T09:19:02;25.60;99.90
4429;DHT22;2227;47.810;8.810;2023-04-29T09:21:29;26.00;99.90
4429;DHT22;2227;47.810;8.810;2023-04-29T09:24:00;26.60;99.90
4429;DHT22;2227;47.810;8.810;2023-04-29T09:26:48;26.50;99.70
4429;DHT22;2227;47.810;8.810;2023-04-29T09:29:17;26.30;98.10
4429;DHT22;2227;47.810;8.810;2023-04-29T09:31:45;25.70;98.30
4429;DHT22;2227;47.810;8.810;2023-04-29T09:34:13;25.40;98.70
4429;DHT22;2227;47.810;8.810;2023-04-29T09:36:48;24.90;98.50
4429;DHT22;2227;47.810;8.810;2023-04-29T09:39:17;24.90;98.90
4429;DHT22;2227;47.810;8.810;2023-04-29T09:44:32;25.90;97.90
4429;DHT22;2227;47.810;8.810;2023-04-29T09:47:08;25.60;97.80
4429;DHT22;2227;47.810;8.810;2023-04-29T09:49:38;24.70;98.80
4429;DHT22;2227;47.810;8.810;2023-04-29T09:52:08;23.50;99.90
4429;DHT22;2227;47.810;8.810;2023-04-29T09:54:37;22.60;99.90
4429;DHT22;2227;47.810;8.810;2023-04-29T09:57:06;22.10;99.90
4429;DHT22;2227;47.810;8.810;2023-04-29T09:59:35;22.40;99.90
4429;DHT22;2227;47.810;8.810;2023-04-29T10:02:07;23.40;99.90
4429;DHT22;2227;47.810;8.810;2023-04-29T10:04:39;24.80;99.80
4429;DHT22;2227;47.810;8.810;2023-04-29T10:07:06;25.20;97.70
4429;DHT22;2227;47.810;8.810;2023-04-29T10:09:34;24.00;98.90
4429;DHT22;2227;47.810;8.810;2023-04-29T10:12:04;24.10;99.10
4429;DHT22;2227;47.810;8.810;2023-04-29T10:14:41;23.80;99.10
4429;DHT22;2227;47.810;8.810;2023-04-29T10:17:35;24.40;99.00
4429;DHT22;2227;47.810;8.810;2023-04-29T10:20:07;24.90;97.90
4429;DHT22;2227;47.810;8.810;2023-04-29T10:22:47;24.80;97.70
4429;DHT22;2227;47.810;8.810;2023-04-29T10:25:16;25.60;96.00
4429;DHT22;2227;47.810;8.810;2023-04-29T10:27:44;25.80;94.30
4429;DHT22;2227;47.810;8.810;2023-04-29T10:30:12;26.50;93.80
4429;DHT22;2227;47.810;8.810;2023-04-29T10:32:41;26.10;94.60
4429;DHT22;2227;47.810;8.810;2023-04-29T10:35:18;25.80;94.60
4429;DHT22;2227;47.810;8.810;2023-04-29T10:37:47;25.10;95.70
4429;DHT22;2227;47.810;8.810;2023-04-29T10:40:44;24.40;96.20
4429;DHT22;2227;47.810;8.810;2023-04-29T10:43:12;24.60;95.70
4429;DHT22;2227;47.810;8.810;2023-04-29T10:45:39;24.60;95.10
4429;DHT22;2227;47.810;8.810;2023-04-29T10:48:10;25.50;94.20
4429;DHT22;2227;47.810;8.810;2023-04-29T10:53:18;26.50;92.50
4429;DHT22;2227;47.810;8.810;2023-04-29T10:55:56;25.40;93.80
4429;DHT22;2227;47.810;8.810;2023-04-29T10:58:33;24.70;94.20
4429;DHT22;2227;47.810;8.810;2023-04-29T11:01:00;24.70;95.00
4429;DHT22;2227;47.810;8.810;2023-04-29T11:03:47;25.40;94.80
4429;DHT22;2227;47.810;8.810;2023-04-29T11:06:15;24.70;93.60
4429;DHT22;2227;47.810;8.810;2023-04-29T11:08:42;24.60;93.80
4429;DHT22;2227;47.810;8.810;2023-04-29T11:11:09;24.20;94.30
4429;DHT22;2227;47.810;8.810;2023-04-29T11:13:39;23.50;95.70
4429;DHT22;2227;47.810;8.810;2023-04-29T11:16:10;22.80;97.00
4429;DHT22;2227;47.810;8.810;2023-04-29T11:19:02;22.40;99.90
4429;DHT22;2227;47.810;8.810;2023-04-29T11:21:29;22.30;99.90
4429;DHT22;2227;47.810;8.810;2023-04-29T11:23:58;22.30;99.90
4429;DHT22;2227;47.810;8.810;2023-04-29T11:26:26;22.50;99.90
4429;DHT22;2227;47.810;8.810;2023-04-29T11:28:53;22.30;99.90
4429;DHT22;2227;47.810;8.810;2023-04-29T11:31:31;21.80;99.90
4429;DHT22;2227;47.810;8.810;2023-04-29T11:33:59;21.50;99.90
4429;DHT22;2227;47.810;8.810;2023-04-29T11:36:26;21.10;99.90
4429;DHT22;2227;47.810;8.810;2023-04-29T11:38:53;20.40;99.90
4429;DHT22;2227;47.810;8.810;2023-04-29T11:41:20;20.00;99.90
4429;DHT22;2227;47.810;8.810;2023-04-29T11:43:54;19.50;99.90
4429;DHT22;2227;47.810;8.810;2023-04-29T11:46:22;18.70;99.90
4429;DHT22;2227;47.810;8.810;2023-04-29T11:48:49;17.70;99.90
4429;DHT22;2227;47.810;8.810;2023-04-29T11:51:17;17.20;99.90
4429;DHT22;2227;47.810;8.810;2023-04-29T11:53:44;16.70;99.90
4429;DHT22;2227;47.810;8.810;2023-04-29T11:56:11;16.50;99.90
4429;DHT22;2227;47.810;8.810;2023-04-29T11:58:38;16.40;99.90
4429;DHT22;2227;47.810;8.810;2023-04-29T12:01:07;16.40;99.90
4429;DHT22;2227;47.810;8.810;2023-04-29T12:03:34;16.40;99.90
4429;DHT22;2227;47.810;8.810;2023-04-29T12:06:02;16.70;99.90
4429;DHT22;2227;47.810;8.810;2023-04-29T12:08:29;17.00;99.90
4429;DHT22;2227;47.810;8.810;2023-04-29T12:10:58;17.40;99.90
4429;DHT22;2227;47.810;8.810;2023-04-29T12:13:29;17.90;99.90
4429;DHT22;2227;47.810;8.810;2023-04-29T12:15:57;18.30;99.90
4429;DHT22;2227;47.810;8.810;2023-04-29T12:18:25;18.40;99.90
4429;DHT22;2227;47.810;8.810;2023-04-29T12:20:53;18.80;99.90
4429;DHT22;2227;47.810;8.810;2023-04-29T12:23:23;19.00;99.90
4429;DHT22;2227;47.810;8.810;2023-04-29T12:25:59;19.20;99.90
4429;DHT22;2227;47.810;8.810;2023-04-29T12:28:26;19.50;99.90
4429;DHT22;2227;47.810;8.810;2023-04-29T12:30:53;19.70;99.90
4429;DHT22;2227;47.810;8.810;2023-04-29T12:33:25;19.70;99.90
4429;DHT22;2227;47.810;8.810;2023-04-29T12:35:54;19.50;99.90
4429;DHT22;2227;47.810;8.810;2023-04-29T12:38:27;19.50;99.90
4429;DHT22;2227;47.810;8.810;2023-04-29T12:40:57;19.50;99.90
4429;DHT22;2227;47.810;8.810;2023-04-29T12:45:59;19.90;99.90
4429;DHT22;2227;47.810;8.810;2023-04-29T12:48:30;20.00;99.90
4429;DHT22;2227;47.810;8.810;2023-04-29T12:51:00;20.30;99.90
4429;DHT22;2227;47.810;8.810;2023-04-29T12:53:30;20.30;99.90
4429;DHT22;2227;47.810;8.810;2023-04-29T12:55:57;20.70;99.90
4429;DHT22;2227;47.810;8.810;2023-04-29T12:58:27;20.80;99.90
4429;DHT22;2227;47.810;8.810;2023-04-29T13:00:53;20.90;99.90
4429;DHT22;2227;47.810;8.810;2023-04-29T13:03:22;21.00;99.90
4429;DHT22;2227;47.810;8.810;2023-04-29T13:05:49;20.60;99.90
4429;DHT22;2227;47.810;8.810;2023-04-29T13:08:18;20.70;99.90
4429;DHT22;2227;47.810;8.810;2023-04-29T13:10:45;20.60;99.90
4429;DHT22;2227;47.810;8.810;2023-04-29T13:13:12;20.80;99.90
4429;DHT22;2227;47.810;8.810;2023-04-29T13:15:39;20.70;99.90
4429;DHT22;2227;47.810;8.810;2023-04-29T13:18:06;20.50;99.90
4429;DHT22;2227;47.810;8.810;2023-04-29T13:20:32;20.40;99.90
4429;DHT22;2227;47.810;8.810;2023-04-29T13:23:07;20.40;99.90
4429;DHT22;2227;47.810;8.810;2023-04-29T13:25:34;20.00;99.90
4429;DHT22;2227;47.810;8.810;2023-04-29T13:28:01;19.70;99.90
4429;DHT22;2227;47.810;8.810;2023-04-29T13:30:28;19.80;99.90
4429;DHT22;2227;47.810;8.810;2023-04-29T13:32:54;19.90;99.90
4429;DHT22;2227;47.810;8.810;2023-04-29T13:35:29;20.20;99.90
4429;DHT22;2227;47.810;8.810;2023-04-29T13:37:56;20.90;99.90
4429;DHT22;2227;47.810;8.810;2023-04-29T13:40:23;21.30;99.90
4429;DHT22;2227;47.810;8.810;2023-04-29T13:42:53;21.80;99.90
4429;DHT22;2227;47.810;8.810;2023-04-29T13:45:32;22.50;99.90
4429;DHT22;2227;47.810;8.810;2023-04-29T13:48:05;22.70;99.90
4429;DHT22;2227;47.810;8.810;2023-04-29T13:50:53;22.90;99.90
4429;DHT22;2227;47.810;8.810;2023-04-29T13:53:40;23.10;99.90
4429;DHT22;2227;47.810;8.810;2023-04-29T13:56:18;23.40;99.90
4429;DHT22;2227;47.810;8.810;2023-04-29T13:58:47;23.30;99.90
4429;DHT22;2227;47.810;8.810;2023-04-29T14:01:18;23.10;99.90
4429;DHT22;2227;47.810;8.810;2023-04-29T14:04:05;23.00;99.90
4429;DHT22;2227;47.810;8.810;2023-04-29T14:06:31;23.20;99.90
4429;DHT22;2227;47.810;8.810;2023-04-29T14:08:59;23.60;99.90
4429;DHT22;2227;47.810;8.810;2023-04-29T14:11:29;24.20;99.90
4429;DHT22;2227;47.810;8.810;2023-04-29T14:13:56;24.70;99.20
4429;DHT22;2227;47.810;8.810;2023-04-29T14:16:22;25.20;99.90
4429;DHT22;2227;47.810;8.810;2023-04-29T14:18:49;25.50;98.40
4429;DHT22;2227;47.810;8.810;2023-04-29T14:21:16;25.50;96.20
4429;DHT22;2227;47.810;8.810;2023-04-29T14:23:43;25.40;96.60
4429;DHT22;2227;47.810;8.810;2023-04-29T14:26:09;25.70;98.20
4429;DHT22;2227;47.810;8.810;2023-04-29T14:28:54;26.00;97.00
4429;DHT22;2227;47.810;8.810;2023-04-29T14:31:33;25.60;96.20
4429;DHT22;2227;47.810;8.810;2023-04-29T14:34:07;25.70;97.20
4429;DHT22;2227;47.810;8.810;2023-04-29T14:36:33;25.50;95.20
4429;DHT22;2227;47.810;8.810;2023-04-29T14:39:00;25.50;95.10
4429;DHT22;2227;47.810;8.810;2023-04-29T14:41:27;25.70;96.20
4429;DHT22;2227;47.810;8.810;2023-04-29T14:43:53;26.00;95.90
4429;DHT22;2227;47.810;8.810;2023-04-29T14:46:20;26.20;94.80
4429;DHT22;2227;47.810;8.810;2023-04-29T14:48:50;26.20;94.10
4429;DHT22;2227;47.810;8.810;2023-04-29T14:51:17;26.30;93.10
4429;DHT22;2227;47.810;8.810;2023-04-29T14:53:44;26.20;92.30
4429;DHT22;2227;47.810;8.810;2023-04-29T14:56:10;25.80;90.70
4429;DHT22;2227;47.810;8.810;2023-04-29T14:58:37;25.70;91.70
4429;DHT22;2227;47.810;8.810;2023-04-29T15:01:04;25.90;91.20
4429;DHT22;2227;47.810;8.810;2023-04-29T15:03:30;25.70;89.10
4429;DHT22;2227;47.810;8.810;2023-04-29T15:05:57;25.70;90.40
4429;DHT22;2227;47.810;8.810;2023-04-29T15:08:26;25.40;89.60
4429;DHT22;2227;47.810;8.810;2023-04-29T15:10:53;25.10;89.10
4429;DHT22;2227;47.810;8.810;2023-04-29T15:13:19;24.90;90.20
4429;DHT22;2227;47.810;8.810;2023-04-29T15:15:46;24.80;91.00
4429;DHT22;2227;47.810;8.810;2023-04-29T15:18:14;24.80;90.70
4429;DHT22;2227;47.810;8.810;2023-04-29T15:20:40;24.70;91.00
4429;DHT22;2227;47.810;8.810;2023-04-29T15:23:07;24.60;90.40
4429;DHT22;2227;47.810;8.810;2023-04-29T15:25:34;24.30;90.50
4429;DHT22;2227;47.810;8.810;2023-04-29T15:28:02;24.00;90.20
4429;DHT22;2227;47.810;8.810;2023-04-29T15:30:30;23.80;91.00
4429;DHT22;2227;47.810;8.810;2023-04-29T15:32:57;23.70;92.20
4429;DHT22;2227;47.810;8.810;2023-04-29T15:35:23;23.60;92.70
4429;DHT22;2227;47.810;8.810;2023-04-29T15:37:50;23.50;92.50
4429;DHT22;2227;47.810;8.810;2023-04-29T15:40:17;23.50;92.00
4429;DHT22;2227;47.810;8.810;2023-04-29T15:42:43;23.40;92.50
4429;DHT22;2227;47.810;8.810;2023-04-29T15:45:10;23.40;91.80
4429;DHT22;2227;47.810;8.810;2023-04-29T15:47:37;23.40;91.30
4429;DHT22;2227;47.810;8.810;2023-04-29T15:50:05;23.30;92.30
4429;DHT22;2227;47.810;8.810;2023-04-29T15:52:32;23.30;91.60
4429;DHT22;2227;47.810;8.810;2023-04-29T15:54:58;23.40;91.80
4429;DHT22;2227;47.810;8.810;2023-04-29T15:57:25;23.40;91.50
4429;DHT22;2227;47.810;8.810;2023-04-29T15:59:52;23.50;91.20
4429;DHT22;2227;47.810;8.810;2023-04-29T16:02:19;23.40;91.10
4429;DHT22;2227;47.810;8.810;2023-04-29T16:04:47;23.30;90.80
4429;DHT22;2227;47.810;8.810;2023-04-29T16:07:13;23.30;91.00
4429;DHT22;2227;47.810;8.810;2023-04-29T16:09:40;23.20;90.90
4429;DHT22;2227;47.810;8.810;2023-04-29T16:12:07;23.20;91.00
4429;DHT22;2227;47.810;8.810;2023-04-29T16:14:37;22.90;91.10
4429;DHT22;2227;47.810;8.810;2023-04-29T16:17:04;22.80;91.60
4429;DHT22;2227;47.810;8.810;2023-04-29T16:19:31;22.80;91.50
4429;DHT22;2227;47.810;8.810;2023-04-29T16:22:02;22.60;91.50
4429;DHT22;2227;47.810;8.810;2023-04-29T16:24:29;22.60;91.90
4429;DHT22;2227;47.810;8.810;2023-04-29T16:26:55;22.50;91.70
4429;DHT22;2227;47.810;8.810;2023-04-29T16:29:22;22.50;92.40
4429;DHT22;2227;47.810;8.810;2023-04-29T16:31:49;22.50;92.00
4429;DHT22;2227;47.810;8.810;2023-04-29T16:34:16;22.40;92.20
4429;DHT22;2227;47.810;8.810;2023-04-29T16:36:42;22.40;91.70
4429;DHT22;2227;47.810;8.810;2023-04-29T16:39:09;22.40;91.50
4429;DHT22;2227;47.810;8.810;2023-04-29T16:41:36;22.40;91.70
4429;DHT22;2227;47.810;8.810;2023-04-29T16:44:03;22.40;91.70
4429;DHT22;2227;47.810;8.810;2023-04-29T16:49:06;22.40;91.80
4429;DHT22;2227;47.810;8.810;2023-04-29T16:51:33;22.40;91.50
4429;DHT22;2227;47.810;8.810;2023-04-29T16:53:59;22.20;91.40
4429;DHT22;2227;47.810;8.810;2023-04-29T16:56:26;22.20;91.20
4429;DHT22;2227;47.810;8.810;2023-04-29T16:58:53;22.10;91.40
4429;DHT22;2227;47.810;8.810;2023-04-29T17:01:20;22.00;90.90
4429;DHT22;2227;47.810;8.810;2023-04-29T17:03:47;21.90;91.30
4429;DHT22;2227;47.810;8.810;2023-04-29T17:06:14;21.90;91.20
4429;DHT22;2227;47.810;8.810;2023-04-29T17:08:41;21.90;91.00
4429;DHT22;2227;47.810;8.810;2023-04-29T17:11:09;21.90;91.50
4429;DHT22;2227;47.810;8.810;2023-04-29T17:13:36;21.90;91.50
4429;DHT22;2227;47.810;8.810;2023-04-29T17:16:03;21.90;91.80
4429;DHT22;2227;47.810;8.810;2023-04-29T17:18:30;21.90;92.30
4429;DHT22;2227;47.810;8.810;2023-04-29T17:20:56;21.90;91.80
4429;DHT22;2227;47.810;8.810;2023-04-29T17:23:23;21.80;92.90
4429;DHT22;2227;47.810;8.810;2023-04-29T17:25:50;21.70;92.40
4429;DHT22;2227;47.810;8.810;2023-04-29T17:28:17;21.50;92.80
4429;DHT22;2227;47.810;8.810;2023-04-29T17:30:43;21.40;92.30
4429;DHT22;2227;47.810;8.810;2023-04-29T17:33:10;21.40;92.90
4429;DHT22;2227;47.810;8.810;2023-04-29T17:35:38;21.40;93.30
4429;DHT22;2227;47.810;8.810;2023-04-29T17:38:06;21.40;92.70
4429;DHT22;2227;47.810;8.810;2023-04-29T17:40:33;21.30;93.00
4429;DHT22;2227;47.810;8.810;2023-04-29T17:42:59;21.30;92.90
4429;DHT22;2227;47.810;8.810;2023-04-29T17:45:26;21.20;92.90
4429;DHT22;2227;47.810;8.810;2023-04-29T17:47:53;21.20;92.80
4429;DHT22;2227;47.810;8.810;2023-04-29T17:50:20;21.10;93.80
4429;DHT22;2227;47.810;8.810;2023-04-29T17:52:46;21.00;93.30
4429;DHT22;2227;47.810;8.810;2023-04-29T17:55:13;20.90;93.30
4429;DHT22;2227;47.810;8.810;2023-04-29T17:57:40;20.70;93.60
4429;DHT22;2227;47.810;8.810;2023-04-29T18:00:07;20.60;93.50
4429;DHT22;2227;47.810;8.810;2023-04-29T18:02:35;20.60;94.60
4429;DHT22;2227;47.810;8.810;2023-04-29T18:05:02;20.40;94.00
4429;DHT22;2227;47.810;8.810;2023-04-29T18:07:29;20.20;94.20
4429;DHT22;2227;47.810;8.810;2023-04-29T18:09:56;20.10;94.00
4429;DHT22;2227;47.810;8.810;2023-04-29T18:12:23;20.00;94.20
4429;DHT22;2227;47.810;8.810;2023-04-29T18:14:50;19.80;94.00
4429;DHT22;2227;47.810;8.810;2023-04-29T18:17:18;19.70;94.30
4429;DHT22;2227;47.810;8.810;2023-04-29T18:19:48;19.50;94.50
4429;DHT22;2227;47.810;8.810;2023-04-29T18:22:15;19.50;94.70
4429;DHT22;2227;47.810;8.810;2023-04-29T18:24:42;19.40;95.00
4429;DHT22;2227;47.810;8.810;2023-04-29T18:27:08;19.20;95.80
4429;DHT22;2227;47.810;8.810;2023-04-29T18:29:35;19.10;95.80
4429;DHT22;2227;47.810;8.810;2023-04-29T18:32:02;18.90;95.30
4429;DHT22;2227;47.810;8.810;2023-04-29T18:34:32;18.80;95.90
4429;DHT22;2227;47.810;8.810;2023-04-29T18:36:59;18.70;96.20
4429;DHT22;2227;47.810;8.810;2023-04-29T18:39:26;18.60;96.50
4429;DHT22;2227;47.810;8.810;2023-04-29T18:41:53;18.60;96.30
4429;DHT22;2227;47.810;8.810;2023-04-29T18:44:20;18.50;96.30
4429;DHT22;2227;47.810;8.810;2023-04-29T18:46:46;18.50;96.50
4429;DHT22;2227;47.810;8.810;2023-04-29T18:49:13;18.40;97.50
4429;DHT22;2227;47.810;8.810;2023-04-29T18:51:45;18.40;97.20
4429;DHT22;2227;47.810;8.810;2023-04-29T18:54:16;18.30;97.20
4429;DHT22;2227;47.810;8.810;2023-04-29T18:56:48;18.20;97.30
4429;DHT22;2227;47.810;8.810;2023-04-29T18:59:15;18.00;97.80
4429;DHT22;2227;47.810;8.810;2023-04-29T19:01:45;18.00;98.10
4429;DHT22;2227;47.810;8.810;2023-04-29T19:04:12;17.80;98.60
4429;DHT22;2227;47.810;8.810;2023-04-29T19:06:39;17.70;98.80
4429;DHT22;2227;47.810;8.810;2023-04-29T19:09:07;17.60;99.30
4429;DHT22;2227;47.810;8.810;2023-04-29T19:11:34;17.60;99.50
4429;DHT22;2227;47.810;8.810;2023-04-29T19:14:00;17.60;99.60
4429;DHT22;2227;47.810;8.810;2023-04-29T19:16:29;17.50;99.70
4429;DHT22;2227;47.810;8.810;2023-04-29T19:18:56;17.40;99.90
4429;DHT22;2227;47.810;8.810;2023-04-29T19:21:23;17.40;99.90
4429;DHT22;2227;47.810;8.810;2023-04-29T19:23:49;17.30;99.90
4429;DHT22;2227;47.810;8.810;2023-04-29T19:26:16;17.30;99.90
4429;DHT22;2227;47.810;8.810;2023-04-29T19:28:43;17.10;99.90
4429;DHT22;2227;47.810;8.810;2023-04-29T19:31:10;17.10;99.90
4429;DHT22;2227;47.810;8.810;2023-04-29T19:33:37;17.10;99.90
4429;DHT22;2227;47.810;8.810;2023-04-29T19:36:04;17.10;99.90
4429;DHT22;2227;47.810;8.810;2023-04-29T19:38:31;16.90;99.90
4429;DHT22;2227;47.810;8.810;2023-04-29T19:40:57;16.70;99.90
4429;DHT22;2227;47.810;8.810;2023-04-29T19:43:24;16.70;99.90
4429;DHT22;2227;47.810;8.810;2023-04-29T19:45:51;16.60;99.90
4429;DHT22;2227;47.810;8.810;2023-04-29T19:48:17;16.60;99.90
4429;DHT22;2227;47.810;8.810;2023-04-29T19:50:44;16.50;99.90
4429;DHT22;2227;47.810;8.810;2023-04-29T19:53:12;16.50;99.90
4429;DHT22;2227;47.810;8.810;2023-04-29T19:55:39;16.40;99.90
4429;DHT22;2227;47.810;8.810;2023-04-29T19:58:06;16.40;99.90
4429;DHT22;2227;47.810;8.810;2023-04-29T20:00:33;16.30;99.90
4429;DHT22;2227;47.810;8.810;2023-04-29T20:02:59;16.30;99.90
4429;DHT22;2227;47.810;8.810;2023-04-29T20:05:26;16.30;99.90
4429;DHT22;2227;47.810;8.810;2023-04-29T20:07:54;16.20;99.90
4429;DHT22;2227;47.810;8.810;2023-04-29T20:10:21;16.20;99.90
4429;DHT22;2227;47.810;8.810;2023-04-29T20:12:48;16.10;99.90
4429;DHT22;2227;47.810;8.810;2023-04-29T20:15:15;16.00;99.90
4429;DHT22;2227;47.810;8.810;2023-04-29T20:17:42;15.90;99.90
4429;DHT22;2227;47.810;8.810;2023-04-29T20:20:09;15.70;99.90
4429;DHT22;2227;47.810;8.810;2023-04-29T20:22:36;15.60;99.90
4429;DHT22;2227;47.810;8.810;2023-04-29T20:25:02;15.50;99.90
4429;DHT22;2227;47.810;8.810;2023-04-29T20:27:29;15.40;99.90
4429;DHT22;2227;47.810;8.810;2023-04-29T20:29:56;15.40;99.90
4429;DHT22;2227;47.810;8.810;2023-04-29T20:32:23;15.20;99.90
4429;DHT22;2227;47.810;8.810;2023-04-29T20:34:50;15.10;99.90
4429;DHT22;2227;47.810;8.810;2023-04-29T20:37:17;15.10;99.90
4429;DHT22;2227;47.810;8.810;2023-04-29T20:39:45;15.10;99.90
4429;DHT22;2227;47.810;8.810;2023-04-29T20:42:13;15.20;99.90
4429;DHT22;2227;47.810;8.810;2023-04-29T20:44:40;15.20;99.90
4429;DHT22;2227;47.810;8.810;2023-04-29T20:47:06;15.20;99.90
4429;DHT22;2227;47.810;8.810;2023-04-29T20:49:33;15.10;99.90
4429;DHT22;2227;47.810;8.810;2023-04-29T20:52:00;15.20;99.90
4429;DHT22;2227;47.810;8.810;2023-04-29T20:54:27;15.10;99.90